Time;durP1;ratioP1;P1;durP2;ratioP2;P2;SDS_P1;SDS_P2;PMS_P1;PMS_P2;Temp;Humidity;BMP_temperature;BMP_pressure;BME280_temperature;BME280_humidity;BME280_pressure;Samples;Min_cycle;Max_cycle;Signal;HPM_P1;HPM_P2
2023/12/14 00:01:27;;;;;;;77.95;27.98;;;;;;;6.70;100.00;100410.94;5012154;28;20099;-73
2023/12/14 00:03:52;;;;;;;83.43;28.38;;;;;;;6.70;100.00;100410.13;4995630;28;20072;-74
2023/12/14 00:06:18;;;;;;;73.15;27.33;;;;;;;6.76;100.00;100414.72;5012852;28;20124;-75
2023/12/14 00:08:43;;;;;;;78.82;26.63;;;;;;;6.73;100.00;100417.59;5011789;28;20041;-74
2023/12/14 00:11:10;;;;;;;69.30;23.60;;;;;;;6.74;100.00;100422.59;5015384;28;20057;-74
2023/12/14 00:13:36;;;;;;;51.85;19.02;;;;;;;6.79;100.00;100428.13;5014760;28;20396;-75
2023/12/14 00:16:02;;;;;;;44.22;17.23;;;;;;;6.71;100.00;100430.59;5008837;28;20037;-74
2023/12/14 00:18:27;;;;;;;39.95;15.13;;;;;;;6.66;100.00;100426.81;5013416;28;20459;-74
2023/12/14 00:20:53;;;;;;;40.08;15.05;;;;;;;6.65;100.00;100427.75;5010868;28;21196;-73
2023/12/14 00:23:20;;;;;;;42.40;15.35;;;;;;;6.66;100.00;100439.72;5010928;28;20042;-74
2023/12/14 00:25:45;;;;;;;41.03;12.80;;;;;;;6.63;100.00;100446.75;5011226;28;20030;-74
2023/12/14 00:28:11;;;;;;;34.83;12.75;;;;;;;6.67;100.00;100446.47;5019644;28;20056;-74
2023/12/14 00:30:36;;;;;;;38.70;14.60;;;;;;;6.68;100.00;100454.06;4992504;28;20041;-73
2023/12/14 00:33:02;;;;;;;45.42;14.32;;;;;;;6.73;100.00;100459.63;4992217;28;20100;-74
2023/12/14 00:35:27;;;;;;;39.25;13.57;;;;;;;6.66;100.00;100463.69;5003567;28;20046;-73
2023/12/14 00:37:53;;;;;;;40.45;13.43;;;;;;;6.67;100.00;100470.50;5008994;28;20037;-73
2023/12/14 00:40:18;;;;;;;38.90;12.93;;;;;;;6.63;100.00;100476.88;5013553;28;20034;-73
2023/12/14 00:42:43;;;;;;;39.40;14.20;;;;;;;6.63;100.00;100475.09;4992383;28;20033;-74
2023/12/14 00:45:09;;;;;;;41.10;14.80;;;;;;;6.62;100.00;100482.97;5008812;28;20439;-74
2023/12/14 00:47:34;;;;;;;39.30;13.10;;;;;;;6.60;100.00;100488.25;5014972;28;20056;-74
2023/12/14 00:50:00;;;;;;;48.03;15.30;;;;;;;6.62;100.00;100493.28;5016502;28;20575;-73
2023/12/14 00:52:25;;;;;;;48.80;16.92;;;;;;;6.65;100.00;100495.59;5011559;28;20412;-74
2023/12/14 00:54:51;;;;;;;56.50;18.65;;;;;;;6.67;100.00;100506.56;5013858;28;20042;-74
2023/12/14 00:57:16;;;;;;;54.95;18.05;;;;;;;6.77;100.00;100514.28;5010599;28;20030;-74
2023/12/14 00:59:42;;;;;;;63.53;17.92;;;;;;;6.68;100.00;100515.91;5006512;28;20041;-74
2023/12/14 01:02:07;;;;;;;53.15;17.38;;;;;;;6.61;100.00;100515.66;5019630;28;20036;-74
2023/12/14 01:04:33;;;;;;;50.80;15.93;;;;;;;6.62;100.00;100526.78;5010956;28;20049;-74
2023/12/14 01:06:58;;;;;;;64.07;18.70;;;;;;;6.58;100.00;100536.53;5014391;28;20036;-73
2023/12/14 01:09:24;;;;;;;59.70;17.58;;;;;;;6.58;100.00;100526.22;5005759;28;20034;-74
2023/12/14 01:11:49;;;;;;;57.65;18.83;;;;;;;6.60;100.00;100533.81;5009667;28;20046;-75
2023/12/14 01:14:15;;;;;;;58.55;18.05;;;;;;;6.53;100.00;100545.63;5009709;28;20156;-74
2023/12/14 01:16:40;;;;;;;62.75;18.77;;;;;;;6.54;100.00;100545.50;5008654;28;20046;-74
2023/12/14 01:19:06;;;;;;;53.80;17.85;;;;;;;6.52;100.00;100552.53;5010253;28;21188;-74
2023/12/14 01:21:34;;;;;;;58.15;18.20;;;;;;;6.64;100.00;100555.78;5004214;28;20456;-73
2023/12/14 01:24:02;;;;;;;57.30;19.15;;;;;;;6.55;100.00;100561.75;5007587;28;20092;-74
2023/12/14 01:26:28;;;;;;;60.25;18.70;;;;;;;6.48;100.00;100568.38;5008062;28;20034;-74
2023/12/14 01:28:53;;;;;;;64.55;19.50;;;;;;;6.49;100.00;100577.75;5010257;28;20488;-74
2023/12/14 01:31:22;;;;;;;62.75;21.15;;;;;;;6.48;100.00;100578.69;5008876;28;20037;-74
2023/12/14 01:33:48;;;;;;;61.13;20.05;;;;;;;6.43;100.00;100590.22;5006602;28;20041;-74
2023/12/14 01:36:21;;;;;;;56.42;19.10;;;;;;;6.41;100.00;100592.13;5004784;28;20119;-74
2023/12/14 01:38:46;;;;;;;53.08;17.90;;;;;;;6.36;100.00;100599.41;5010567;28;20033;-74
2023/12/14 01:41:12;;;;;;;51.47;18.05;;;;;;;6.41;100.00;100609.34;5008015;28;20034;-74
2023/12/14 01:43:37;;;;;;;54.25;18.75;;;;;;;6.42;100.00;100616.94;5005250;28;20042;-74
2023/12/14 01:46:03;;;;;;;53.33;17.83;;;;;;;6.32;100.00;100617.88;5002560;28;20063;-74
2023/12/14 01:48:28;;;;;;;52.42;17.83;;;;;;;6.33;100.00;100620.31;5016582;28;20436;-74
2023/12/14 01:50:54;;;;;;;54.10;18.63;;;;;;;6.27;100.00;100625.16;5006240;28;20046;-74
2023/12/14 01:53:19;;;;;;;49.63;18.88;;;;;;;6.28;100.00;100626.81;5015230;28;20034;-73
2023/12/14 01:55:45;;;;;;;47.17;18.35;;;;;;;6.22;100.00;100626.38;4992547;28;20045;-74
2023/12/14 01:58:10;;;;;;;50.63;19.33;;;;;;;6.18;100.00;100626.78;5004816;28;20482;-74
2023/12/14 02:00:57;;;;;;;46.67;19.15;;;;;;;6.31;100.00;100632.50;5010886;28;20034;-74
2023/12/14 02:03:22;;;;;;;49.58;18.52;;;;;;;6.16;100.00;100634.63;5013408;28;20040;-74
2023/12/14 02:05:55;;;;;;;56.67;19.33;;;;;;;6.16;100.00;100638.94;5007033;28;20567;-74
2023/12/14 02:08:20;;;;;;;60.70;21.65;;;;;;;6.13;100.00;100641.81;5007723;28;20036;-73
2023/12/14 02:10:46;;;;;;;52.50;20.67;;;;;;;6.12;100.00;100647.88;5009856;28;20030;-74
2023/12/14 02:13:11;;;;;;;58.03;21.80;;;;;;;6.07;100.00;100653.44;5011310;28;20038;-74
2023/12/14 02:15:37;;;;;;;57.13;22.67;;;;;;;6.01;100.00;100656.53;5006677;28;20026;-74
2023/12/14 02:18:04;;;;;;;60.17;21.55;;;;;;;6.01;100.00;100654.78;5011565;28;20038;-74
2023/12/14 02:20:30;;;;;;;57.42;21.77;;;;;;;6.07;100.00;100658.59;5008704;28;20034;-74
2023/12/14 02:22:56;;;;;;;57.25;22.08;;;;;;;6.06;100.00;100664.66;5012682;28;20481;-74
2023/12/14 02:25:23;;;;;;;71.93;25.98;;;;;;;6.05;100.00;100668.19;4989400;28;20030;-74
2023/12/14 02:27:50;;;;;;;67.88;24.08;;;;;;;5.92;100.00;100677.88;5006584;28;20029;-74
2023/12/14 02:30:16;;;;;;;69.45;24.98;;;;;;;5.95;100.00;100681.03;5008671;28;20044;-74
2023/12/14 02:32:41;;;;;;;65.28;25.33;;;;;;;5.86;100.00;100684.34;5009689;28;20117;-74
2023/12/14 02:35:08;;;;;;;66.28;25.50;;;;;;;5.88;100.00;100695.31;5002798;28;20145;-74
2023/12/14 02:37:34;;;;;;;69.28;25.45;;;;;;;5.80;100.00;100706.25;5010861;28;20108;-74
2023/12/14 02:40:00;;;;;;;77.30;28.63;;;;;;;5.91;100.00;100705.34;5012615;28;20117;-74
2023/12/14 02:42:26;;;;;;;75.82;27.95;;;;;;;5.76;100.00;100711.75;5007070;28;20022;-73
2023/12/14 02:44:53;;;;;;;76.63;27.00;;;;;;;5.79;100.00;100721.81;5008904;28;20092;-74
2023/12/14 02:47:19;;;;;;;77.80;29.23;;;;;;;5.81;100.00;100722.50;5009556;28;20119;-73
2023/12/14 02:49:44;;;;;;;76.90;28.30;;;;;;;5.75;100.00;100734.13;5010155;28;20485;-74
2023/12/14 02:52:10;;;;;;;86.30;28.23;;;;;;;5.74;100.00;100736.81;5005637;28;20493;-74
2023/12/14 02:54:38;;;;;;;69.28;26.23;;;;;;;5.76;100.00;100745.22;5006224;28;20046;-74
2023/12/14 02:57:03;;;;;;;72.32;27.83;;;;;;;5.75;100.00;100751.31;5003615;28;20042;-75
2023/12/14 02:59:29;;;;;;;60.63;24.60;;;;;;;5.58;100.00;100753.50;5021224;28;20037;-74
2023/12/14 03:01:54;;;;;;;65.68;24.48;;;;;;;5.60;100.00;100753.38;5010207;28;20038;-74
2023/12/14 03:04:20;;;;;;;59.33;24.35;;;;;;;5.67;100.00;100759.66;5010726;28;20427;-74
2023/12/14 03:06:45;;;;;;;60.03;23.77;;;;;;;5.67;100.00;100757.09;4990198;28;20527;-75
2023/12/14 03:09:11;;;;;;;59.72;23.27;;;;;;;5.71;100.00;100765.34;5021715;28;20038;-74
2023/12/14 03:11:36;;;;;;;68.97;26.60;;;;;;;5.59;100.00;100762.84;5007755;28;20053;-74
2023/12/14 03:14:02;;;;;;;69.78;25.60;;;;;;;5.58;100.00;100768.13;5005618;28;20547;-74
2023/12/14 03:16:27;;;;;;;62.00;25.20;;;;;;;5.57;100.00;100763.91;4995489;28;20459;-74
2023/12/14 03:18:53;;;;;;;73.95;27.90;;;;;;;5.56;100.00;100783.69;5009813;28;20104;-74
2023/12/14 03:21:19;;;;;;;70.53;27.20;;;;;;;5.52;100.00;100781.47;5008715;28;20069;-74
2023/12/14 03:23:45;;;;;;;69.07;28.23;;;;;;;5.49;100.00;100786.88;5018249;28;20026;-74
2023/12/14 03:26:11;;;;;;;72.55;28.58;;;;;;;5.51;100.00;100790.13;5016015;28;20519;-73
2023/12/14 03:28:36;;;;;;;76.80;29.13;;;;;;;5.44;100.00;100780.34;5019156;28;20040;-74
2023/12/14 03:31:02;;;;;;;71.45;27.13;;;;;;;5.44;100.00;100792.38;5009879;28;20050;-74
2023/12/14 03:33:28;;;;;;;74.20;28.15;;;;;;;5.44;100.00;100795.78;5015048;28;21950;-74
2023/12/14 03:35:53;;;;;;;70.85;26.45;;;;;;;5.41;100.00;100790.88;5006536;28;20042;-74
2023/12/14 03:38:19;;;;;;;69.60;28.00;;;;;;;5.45;100.00;100797.41;5012716;28;20030;-73
2023/12/14 03:40:44;;;;;;;71.70;28.73;;;;;;;5.55;100.00;100804.38;5012074;28;20034;-75
2023/12/14 03:43:10;;;;;;;64.53;25.85;;;;;;;5.54;100.00;100807.88;5004354;28;20580;-74
2023/12/14 03:45:35;;;;;;;68.60;27.38;;;;;;;5.49;100.00;100807.44;5010348;28;20377;-75
2023/12/14 03:48:01;;;;;;;64.25;26.10;;;;;;;5.49;100.00;100821.13;4997926;28;20033;-74
2023/12/14 03:50:27;;;;;;;65.75;26.23;;;;;;;5.45;100.00;100822.31;4995180;28;20539;-74
2023/12/14 03:52:53;;;;;;;72.15;26.75;;;;;;;5.47;100.00;100820.44;5008587;28;20041;-74
2023/12/14 03:55:18;;;;;;;62.95;25.20;;;;;;;5.45;100.00;100827.44;5009880;28;20041;-74
2023/12/14 03:57:44;;;;;;;65.75;25.25;;;;;;;5.40;100.00;100832.13;5013001;28;20030;-74
2023/12/14 04:00:11;;;;;;;62.83;24.80;;;;;;;5.36;100.00;100831.56;4996844;28;20416;-74
2023/12/14 04:02:36;;;;;;;63.80;24.95;;;;;;;5.31;100.00;100836.25;5010818;28;20041;-74
2023/12/14 04:05:02;;;;;;;62.22;23.55;;;;;;;5.34;100.00;100840.34;5005804;28;22040;-75
2023/12/14 04:07:27;;;;;;;62.97;23.65;;;;;;;5.32;100.00;100844.78;5015496;28;20033;-73
2023/12/14 04:09:53;;;;;;;60.33;22.80;;;;;;;5.29;100.00;100850.16;5010699;28;20033;-74
2023/12/14 04:12:18;;;;;;;57.10;20.80;;;;;;;5.24;100.00;100853.91;5014866;28;20033;-74
2023/12/14 04:14:46;;;;;;;57.63;22.08;;;;;;;5.24;100.00;100858.25;5010005;28;20504;-74
2023/12/14 04:17:12;;;;;;;57.63;22.08;;;;;;;5.28;100.00;100853.69;5009125;28;20109;-74
2023/12/14 04:19:40;;;;;;;53.22;21.80;;;;;;;5.20;100.00;100857.66;5010675;28;20492;-74
2023/12/14 04:22:06;;;;;;;57.50;20.77;;;;;;;5.25;100.00;100860.69;5008915;28;20557;-74
2023/12/14 04:24:31;;;;;;;55.92;21.65;;;;;;;5.35;100.00;100870.25;4992438;28;20041;-74
2023/12/14 04:26:57;;;;;;;53.85;21.42;;;;;;;5.19;100.00;100871.44;4995181;28;20901;-75
2023/12/14 04:29:22;;;;;;;52.20;21.08;;;;;;;5.23;100.00;100879.75;5012110;28;20412;-74
2023/12/14 04:31:48;;;;;;;53.53;23.50;;;;;;;5.29;100.00;100876.69;5011910;28;20041;-74
2023/12/14 04:34:15;;;;;;;50.95;20.77;;;;;;;5.24;100.00;100883.97;5008834;28;20083;-74
2023/12/14 04:36:45;;;;;;;55.58;19.88;;;;;;;5.25;100.00;100881.28;5008170;28;20068;-75
2023/12/14 04:39:11;;;;;;;54.80;21.77;;;;;;;5.27;100.00;100888.84;5014602;28;20053;-74
2023/12/14 04:41:36;;;;;;;58.45;21.65;;;;;;;5.22;100.00;100894.34;5011022;28;20081;-74
2023/12/14 04:44:02;;;;;;;49.60;21.60;;;;;;;5.23;100.00;100898.53;5012946;28;20046;-74
2023/12/14 04:46:28;;;;;;;56.80;21.58;;;;;;;5.16;100.00;100905.13;5012602;28;20053;-74
2023/12/14 04:48:53;;;;;;;51.55;20.58;;;;;;;5.26;100.00;100905.22;5012547;28;20188;-74
2023/12/14 04:51:19;;;;;;;53.42;21.40;;;;;;;5.16;100.00;100906.84;4996774;28;20031;-74
2023/12/14 04:53:44;;;;;;;53.05;20.65;;;;;;;5.10;100.00;100904.75;5013883;28;20041;-74
2023/12/14 04:56:14;;;;;;;59.53;22.70;;;;;;;5.06;100.00;100906.75;5012222;28;20504;-74
2023/12/14 04:58:39;;;;;;;55.00;22.00;;;;;;;5.06;100.00;100912.69;5011597;28;20072;-74
2023/12/14 05:01:05;;;;;;;59.10;21.48;;;;;;;5.08;100.00;100915.16;5008481;28;20066;-74
2023/12/14 05:03:31;;;;;;;50.53;21.98;;;;;;;5.06;100.00;100922.97;5007774;28;20088;-73
2023/12/14 05:05:56;;;;;;;61.67;22.65;;;;;;;5.09;100.00;100921.13;5008022;28;20096;-74
2023/12/14 05:08:22;;;;;;;60.65;23.75;;;;;;;5.08;100.00;100930.56;5014647;28;20032;-74
2023/12/14 05:10:47;;;;;;;62.33;24.25;;;;;;;5.09;100.00;100932.22;5012402;28;20042;-74
2023/12/14 05:13:13;;;;;;;65.25;26.20;;;;;;;5.04;100.00;100929.19;5003704;28;20040;-74
2023/12/14 05:15:38;;;;;;;64.82;23.60;;;;;;;5.02;100.00;100942.16;5009520;28;20041;-74
2023/12/14 05:18:04;;;;;;;64.07;23.35;;;;;;;5.02;100.00;100943.91;5007848;28;20040;-73
2023/12/14 05:20:29;;;;;;;64.22;23.38;;;;;;;4.95;100.00;100948.69;4995945;28;20628;-74
2023/12/14 05:22:55;;;;;;;62.15;24.23;;;;;;;4.96;100.00;100952.09;5007512;28;20033;-73
2023/12/14 05:25:20;;;;;;;60.40;21.58;;;;;;;5.01;100.00;100949.97;5012689;28;20041;-74
2023/12/14 05:27:46;;;;;;;59.05;22.00;;;;;;;4.93;100.00;100950.53;5008508;28;20096;-74
2023/12/14 05:30:11;;;;;;;54.60;20.88;;;;;;;4.91;100.00;100960.13;5003689;28;20029;-74
2023/12/14 05:32:37;;;;;;;55.65;22.20;;;;;;;4.89;100.00;100962.00;5012660;28;20034;-74
2023/12/14 05:35:02;;;;;;;63.10;20.70;;;;;;;4.96;100.00;100959.78;5008755;28;22543;-75
2023/12/14 05:37:28;;;;;;;51.83;20.67;;;;;;;4.90;100.00;100975.66;5007006;28;20038;-74
2023/12/14 05:39:53;;;;;;;57.38;19.40;;;;;;;4.92;100.00;100972.06;5011939;28;20087;-74
2023/12/14 05:42:19;;;;;;;56.35;20.05;;;;;;;4.88;100.00;100986.88;5023396;28;20369;-74
2023/12/14 05:44:45;;;;;;;54.00;22.02;;;;;;;4.87;100.00;100984.41;4999452;28;20065;-73
2023/12/14 05:47:10;;;;;;;51.22;21.38;;;;;;;4.94;100.00;101001.03;5007528;28;20040;-73
2023/12/14 05:49:37;;;;;;;58.45;22.08;;;;;;;4.94;100.00;100992.50;5013625;28;20026;-73
2023/12/14 05:52:02;;;;;;;54.95;21.55;;;;;;;4.96;100.00;101004.31;5012880;28;20062;-74
2023/12/14 05:54:28;;;;;;;54.60;21.38;;;;;;;4.99;100.00;101010.94;5011581;28;20112;-74
2023/12/14 05:56:54;;;;;;;51.50;20.60;;;;;;;4.90;100.00;101017.63;5009630;28;20045;-74
2023/12/14 05:59:19;;;;;;;56.22;21.17;;;;;;;4.92;100.00;101025.22;5010806;28;20030;-74
2023/12/14 06:01:45;;;;;;;51.90;21.60;;;;;;;4.96;100.00;101031.75;5005080;28;20508;-73
2023/12/14 06:04:10;;;;;;;46.55;20.23;;;;;;;5.17;100.00;101042.19;5007147;28;20535;-73
2023/12/14 06:06:38;;;;;;;45.22;19.25;;;;;;;5.00;100.00;101046.00;4991493;28;20033;-74
2023/12/14 06:09:06;;;;;;;43.67;18.05;;;;;;;5.06;100.00;101048.13;5030886;28;20068;-73
2023/12/14 06:11:31;;;;;;;40.95;18.85;;;;;;;5.02;100.00;101051.84;5004945;28;20044;-72
2023/12/14 06:13:57;;;;;;;45.20;18.95;;;;;;;5.03;100.00;101053.50;5009398;28;20417;-73
2023/12/14 06:16:22;;;;;;;45.45;18.98;;;;;;;5.01;100.00;101063.91;5011843;28;20041;-73
2023/12/14 06:18:48;;;;;;;53.28;19.70;;;;;;;5.00;100.00;101066.56;5006323;28;20845;-73
2023/12/14 06:21:13;;;;;;;54.17;22.33;;;;;;;5.01;100.00;101076.75;5004185;28;20057;-73
2023/12/14 06:23:39;;;;;;;55.90;23.92;;;;;;;4.99;100.00;101080.34;5015274;28;20034;-71
2023/12/14 06:26:05;;;;;;;55.72;22.58;;;;;;;5.00;100.00;101087.13;5005756;28;20035;-73
2023/12/14 06:28:33;;;;;;;51.78;20.42;;;;;;;4.93;100.00;101085.94;5008549;28;20091;-71
2023/12/14 06:30:58;;;;;;;53.15;22.67;;;;;;;5.01;100.00;101091.34;5009873;28;20062;-73
2023/12/14 06:33:24;;;;;;;50.72;20.95;;;;;;;4.98;100.00;101097.53;5017700;28;20041;-73
2023/12/14 06:35:49;;;;;;;51.08;21.45;;;;;;;5.11;100.00;101097.44;5007779;28;20042;-73
2023/12/14 06:38:15;;;;;;;57.08;23.33;;;;;;;5.07;100.00;101103.75;5013050;28;20037;-73
2023/12/14 06:40:41;;;;;;;62.55;22.95;;;;;;;5.03;100.00;101104.91;5003582;28;20500;-73
2023/12/14 06:43:07;;;;;;;57.42;22.63;;;;;;;5.00;100.00;101113.66;5012014;28;20089;-73
2023/12/14 06:45:33;;;;;;;57.25;23.02;;;;;;;4.96;100.00;101114.00;4989772;28;20377;-73
2023/12/14 06:47:58;;;;;;;54.22;22.33;;;;;;;4.90;100.00;101120.41;5007777;28;20054;-73
2023/12/14 06:50:23;;;;;;;57.28;24.48;;;;;;;4.82;100.00;101128.66;5007889;28;20037;-73
2023/12/14 06:52:49;;;;;;;58.35;22.58;;;;;;;4.77;100.00;101123.03;5002642;28;20488;-73
2023/12/14 06:55:14;;;;;;;53.88;22.38;;;;;;;4.73;100.00;101128.50;5013571;28;20451;-73
2023/12/14 06:57:43;;;;;;;63.10;23.73;;;;;;;4.77;100.00;101128.16;5004959;28;20057;-73
2023/12/14 07:00:10;;;;;;;54.85;22.20;;;;;;;4.69;100.00;101135.63;5011512;28;20037;-72
2023/12/14 07:02:35;;;;;;;61.83;23.75;;;;;;;4.74;100.00;101146.38;5012287;28;20041;-73
2023/12/14 07:05:01;;;;;;;58.60;22.90;;;;;;;4.72;100.00;101144.84;5016658;28;20033;-73
2023/12/14 07:07:26;;;;;;;60.10;24.00;;;;;;;4.69;100.00;101158.75;5013006;28;20030;-75
2023/12/14 07:09:52;;;;;;;61.35;24.00;;;;;;;4.65;100.00;101155.56;5017571;28;20053;-73
2023/12/14 07:12:17;;;;;;;60.78;24.17;;;;;;;4.71;100.00;101168.88;5014696;28;20026;-73
2023/12/14 07:14:43;;;;;;;57.67;24.83;;;;;;;4.65;100.00;101172.72;4988641;28;20030;-73
2023/12/14 07:17:08;;;;;;;62.28;23.90;;;;;;;4.64;100.00;101189.06;5017607;28;20041;-73
2023/12/14 07:19:35;;;;;;;60.65;24.77;;;;;;;4.50;100.00;101190.00;5013229;28;20029;-73
2023/12/14 07:22:01;;;;;;;59.30;23.35;;;;;;;4.53;100.00;101194.13;5013115;28;20087;-73
2023/12/14 07:24:26;;;;;;;56.00;23.77;;;;;;;4.65;100.00;101200.97;5007989;28;20034;-73
2023/12/14 07:26:52;;;;;;;53.08;23.23;;;;;;;4.62;100.00;101202.00;5013545;28;20477;-72
2023/12/14 07:29:17;;;;;;;47.63;21.80;;;;;;;4.64;100.00;101209.63;5014739;28;20409;-73
2023/12/14 07:31:42;;;;;;;48.58;21.38;;;;;;;4.54;100.00;101209.44;5015364;28;20045;-73
2023/12/14 07:34:08;;;;;;;50.95;21.70;;;;;;;4.50;100.00;101208.00;5017939;28;20057;-72
2023/12/14 07:36:34;;;;;;;53.50;22.40;;;;;;;4.68;100.00;101205.91;5011804;28;20038;-73
2023/12/14 07:39:01;;;;;;;48.42;21.60;;;;;;;4.63;100.00;101213.94;5012272;28;20037;-73
2023/12/14 07:41:29;;;;;;;54.25;24.45;;;;;;;4.57;100.00;101221.25;5011849;28;21073;-73
2023/12/14 07:43:55;;;;;;;50.67;22.77;;;;;;;4.71;100.00;101220.28;5012598;28;20769;-73
2023/12/14 07:46:21;;;;;;;46.10;21.60;;;;;;;4.64;100.00;101225.03;5017263;28;20060;-73
2023/12/14 07:48:46;;;;;;;52.25;21.38;;;;;;;4.58;100.00;101236.56;5009179;28;20053;-73
2023/12/14 07:51:12;;;;;;;52.60;22.67;;;;;;;4.62;100.00;101232.84;5008697;28;20042;-73
2023/12/14 07:53:38;;;;;;;49.38;22.60;;;;;;;4.68;100.00;101240.09;5016565;28;20084;-73
2023/12/14 07:56:04;;;;;;;49.67;22.00;;;;;;;4.66;100.00;101252.25;5014330;28;20085;-73
2023/12/14 07:58:29;;;;;;;48.45;21.48;;;;;;;4.62;100.00;101252.56;5018229;28;20025;-73
2023/12/14 08:00:55;;;;;;;49.20;22.00;;;;;;;4.53;100.00;101272.00;5013101;28;20413;-73
2023/12/14 08:03:20;;;;;;;49.80;22.35;;;;;;;4.54;100.00;101270.25;5010946;28;20385;-73
2023/12/14 08:05:46;;;;;;;50.42;21.73;;;;;;;4.47;100.00;101272.44;5011248;28;20099;-73
2023/12/14 08:08:11;;;;;;;51.42;22.98;;;;;;;4.61;100.00;101287.69;5015514;28;20037;-72
2023/12/14 08:10:37;;;;;;;51.33;22.23;;;;;;;4.59;100.00;101278.47;5016391;28;20034;-73
2023/12/14 08:13:02;;;;;;;45.35;21.73;;;;;;;4.55;100.00;101288.13;5013095;28;20632;-73
2023/12/14 08:15:27;;;;;;;51.00;22.90;;;;;;;4.59;100.00;101299.81;5014128;28;20037;-73
2023/12/14 08:17:53;;;;;;;48.15;21.63;;;;;;;4.56;100.00;101301.78;5016593;28;20041;-72
2023/12/14 08:20:19;;;;;;;51.95;22.95;;;;;;;4.65;100.00;101303.72;5012424;28;20046;-73
2023/12/14 08:22:44;;;;;;;46.08;21.48;;;;;;;4.59;100.00;101317.00;5013535;28;20080;-73
2023/12/14 08:25:17;;;;;;;45.72;21.75;;;;;;;4.57;100.00;101329.13;5000056;28;20046;-73
2023/12/14 08:27:43;;;;;;;47.92;21.83;;;;;;;4.64;100.00;101331.16;5007423;28;20652;-73
2023/12/14 08:30:11;;;;;;;49.28;21.67;;;;;;;4.58;100.00;101341.06;5016866;28;20117;-73
2023/12/14 08:32:36;;;;;;;43.40;20.67;;;;;;;4.61;100.00;101344.22;5013506;28;20058;-73
2023/12/14 08:35:02;;;;;;;45.47;19.90;;;;;;;4.60;100.00;101346.91;4994509;28;20527;-73
2023/12/14 08:37:27;;;;;;;42.00;20.20;;;;;;;4.62;100.00;101350.19;5016769;28;20034;-73
2023/12/14 08:39:52;;;;;;;47.50;21.55;;;;;;;4.54;100.00;101358.41;5012748;28;20042;-73
2023/12/14 08:42:18;;;;;;;46.78;20.95;;;;;;;4.57;100.00;101357.38;5015598;28;20029;-73
2023/12/14 08:44:43;;;;;;;45.92;21.70;;;;;;;4.53;100.00;101361.91;5011341;28;20091;-73
2023/12/14 08:47:09;;;;;;;43.47;19.73;;;;;;;4.48;100.00;101366.50;5010436;28;20034;-73
2023/12/14 08:49:35;;;;;;;42.80;19.90;;;;;;;4.52;100.00;101374.84;5008907;28;20032;-73
2023/12/14 08:52:01;;;;;;;41.90;19.88;;;;;;;4.59;100.00;101382.03;5008863;28;21529;-73
2023/12/14 08:54:27;;;;;;;43.35;20.48;;;;;;;4.58;100.00;101379.59;5010172;28;20087;-73
2023/12/14 08:56:52;;;;;;;42.80;20.33;;;;;;;4.63;100.00;101385.22;5011201;28;20025;-73
2023/12/14 08:59:19;;;;;;;47.10;20.85;;;;;;;4.63;100.00;101387.78;5010446;28;20509;-73
2023/12/14 09:01:45;;;;;;;42.47;19.83;;;;;;;4.61;100.00;101381.94;4997402;28;20038;-73
2023/12/14 09:04:11;;;;;;;36.05;18.15;;;;;;;4.62;100.00;101399.00;5016702;28;20057;-73
2023/12/14 09:06:36;;;;;;;41.45;19.30;;;;;;;4.63;100.00;101395.50;5011021;28;20041;-73
2023/12/14 09:09:03;;;;;;;38.08;18.23;;;;;;;4.59;100.00;101404.34;4995448;28;20728;-73
2023/12/14 09:11:29;;;;;;;43.92;19.08;;;;;;;4.68;100.00;101396.00;5006296;28;20034;-73
2023/12/14 09:13:55;;;;;;;38.05;18.48;;;;;;;4.62;100.00;101409.28;5010789;28;20423;-73
2023/12/14 09:16:20;;;;;;;39.97;18.83;;;;;;;4.67;100.00;101397.75;5017505;28;20504;-73
2023/12/14 09:18:46;;;;;;;37.90;17.95;;;;;;;4.60;100.00;101413.69;4997181;28;20049;-73
2023/12/14 09:21:11;;;;;;;39.50;19.55;;;;;;;4.56;100.00;101413.06;5013861;28;20033;-73
2023/12/14 09:23:37;;;;;;;42.03;19.75;;;;;;;4.58;100.00;101416.38;5010283;28;20404;-73
2023/12/14 09:26:02;;;;;;;41.00;19.38;;;;;;;4.65;100.00;101409.91;5005889;28;20463;-73
2023/12/14 09:28:28;;;;;;;37.83;18.63;;;;;;;4.65;100.00;101415.03;5013194;28;20033;-73
2023/12/14 09:30:53;;;;;;;41.28;19.35;;;;;;;4.57;100.00;101413.88;5008851;28;20056;-73
2023/12/14 09:33:19;;;;;;;41.05;20.17;;;;;;;4.64;100.00;101421.09;5008573;28;20030;-73
2023/12/14 09:35:45;;;;;;;40.80;19.35;;;;;;;4.61;100.00;101426.41;5005021;28;20404;-74
2023/12/14 09:38:13;;;;;;;43.47;20.20;;;;;;;4.66;100.00;101432.06;5010752;28;20045;-73
2023/12/14 09:40:39;;;;;;;41.53;19.42;;;;;;;4.66;100.00;101434.66;5008496;28;20037;-73
2023/12/14 09:43:05;;;;;;;41.30;18.77;;;;;;;4.61;100.00;101435.88;5013753;28;20053;-73
2023/12/14 09:45:31;;;;;;;39.70;19.73;;;;;;;4.64;100.00;101445.97;5015029;28;20033;-73
2023/12/14 09:48:00;;;;;;;39.70;19.52;;;;;;;4.64;100.00;101444.22;5009691;28;20469;-73
2023/12/14 09:50:26;;;;;;;38.78;18.88;;;;;;;4.78;100.00;101452.75;5011665;28;20127;-73
2023/12/14 09:52:51;;;;;;;37.78;18.98;;;;;;;4.76;100.00;101465.69;4989411;28;20248;-73
2023/12/14 09:55:17;;;;;;;38.55;18.42;;;;;;;4.91;100.00;101468.97;4994596;28;20037;-73
2023/12/14 09:57:42;;;;;;;37.85;19.88;;;;;;;4.82;100.00;101474.72;5010593;28;20037;-74
2023/12/14 10:00:11;;;;;;;37.97;18.65;;;;;;;4.91;100.00;101479.25;5006727;28;20038;-73
2023/12/14 10:02:37;;;;;;;36.45;19.13;;;;;;;4.91;100.00;101484.41;4999393;28;20485;-73
2023/12/14 10:05:03;;;;;;;40.88;19.88;;;;;;;4.74;100.00;101487.28;5007421;28;20044;-73
2023/12/14 10:07:30;;;;;;;36.78;19.00;;;;;;;4.72;100.00;101489.94;5008182;28;20121;-73
2023/12/14 10:10:10;;;;;;;38.67;18.55;;;;;;;4.75;100.00;101499.22;5010456;28;20491;-73
2023/12/14 10:12:51;;;;;;;37.58;19.13;;;;;;;4.73;100.00;101504.44;4995532;28;20040;-72
2023/12/14 10:15:16;;;;;;;37.83;18.10;;;;;;;4.73;100.00;101501.88;5007497;28;20038;-73
2023/12/14 10:17:42;;;;;;;37.17;19.08;;;;;;;4.71;100.00;101506.31;5008154;28;20045;-73
2023/12/14 10:20:09;;;;;;;35.53;18.27;;;;;;;4.66;100.00;101510.91;5005983;28;20100;-73
2023/12/14 10:22:37;;;;;;;36.95;18.00;;;;;;;4.84;100.00;101520.00;5007541;28;20065;-73
2023/12/14 10:25:03;;;;;;;33.05;17.73;;;;;;;4.75;100.00;101517.19;5006075;28;20516;-73
2023/12/14 10:27:29;;;;;;;32.72;16.73;;;;;;;4.82;100.00;101521.00;5012348;28;20049;-73
2023/12/14 10:29:56;;;;;;;34.60;15.63;;;;;;;4.66;100.00;101529.72;4995578;28;20041;-74
2023/12/14 10:32:22;;;;;;;31.58;16.35;;;;;;;4.66;100.00;101524.56;5009947;28;20123;-74
2023/12/14 10:34:48;;;;;;;28.75;15.35;;;;;;;4.57;100.00;101538.00;5010820;28;20042;-73
2023/12/14 10:37:15;;;;;;;34.38;15.40;;;;;;;4.70;100.00;101532.91;5008921;28;20099;-72
2023/12/14 10:39:42;;;;;;;34.75;16.40;;;;;;;4.70;100.00;101530.34;5015034;28;20037;-73
2023/12/14 10:42:08;;;;;;;33.50;16.30;;;;;;;4.62;100.00;101541.09;5016233;28;20061;-73
2023/12/14 10:44:36;;;;;;;34.47;16.52;;;;;;;4.66;100.00;101539.97;4995631;28;20033;-72
2023/12/14 10:47:04;;;;;;;38.22;16.90;;;;;;;4.69;100.00;101544.13;5013908;28;20057;-72
2023/12/14 10:49:30;;;;;;;34.47;16.90;;;;;;;4.70;100.00;101547.50;5011543;28;20030;-73
2023/12/14 10:51:58;;;;;;;34.90;16.42;;;;;;;4.75;100.00;101555.75;5011185;28;20026;-74
2023/12/14 10:54:25;;;;;;;35.60;17.73;;;;;;;4.77;100.00;101559.84;5011477;28;20058;-73
2023/12/14 10:56:56;;;;;;;38.08;17.83;;;;;;;4.74;100.00;101564.38;5015402;28;20037;-73
2023/12/14 10:59:21;;;;;;;33.53;16.67;;;;;;;4.72;100.00;101556.75;5011606;28;20022;-74
2023/12/14 11:01:54;;;;;;;32.75;16.20;;;;;;;4.92;100.00;101554.66;5015406;28;20573;-73
2023/12/14 11:04:23;;;;;;;32.33;16.38;;;;;;;4.90;100.00;101569.31;5015242;28;20044;-73